East Charleston, VT (05833)

12:21 PM EST on January 19, 2017 (GMT -0500)
| | Change Station

Elev -9999 ft 0.00 °N, 0.00 °E | Updated 8 minutes ago

Overcast
Overcast
°F
Feels Like °F
N
Wind Variable Wind from North
Gusts mph

Today
High -- | Low -- °F
--% Chance of Precip.
Yesterday
High -- | Low -- °F
Precip. -- in
Pressure 29.95 in
Visibility 4.0 miles
Clouds Mostly Cloudy 600 ft
Mostly Cloudy 1300 ft
Overcast 3000 ft
Dew Point Not available.
Humidity Not available.
Rainfall --
Snow Depth Not available.
7:19 AM 4:38 PM
Waning Gibbous, 52% visible
METAR KEFK 191655Z AUTO 31005KT 4SM -RA BKN006 BKN013 OVC030 01/00 A2995 RMK AO2 T00051001
Pressure 29.95 in
Visibility 4.0 miles
Clouds Mostly Cloudy 600 ft
Mostly Cloudy 1300 ft
Overcast 3000 ft
Dew Point Not available.
Humidity Not available.
Rainfall --
Snow Depth Not available.
7:19 AM 4:38 PM
Waning Gibbous, 52% visible
METAR KEFK 191655Z AUTO 31005KT 4SM -RA BKN006 BKN013 OVC030 01/00 A2995 RMK AO2 T00051001

Get Your Daily Forecast Email!

Thanks for signing up!

Be on the lookout for a verification email in your inbox.

You'll start receiving the daily forecast at 8 AM.

×

10-Day Weather Forecast

Almanac

Astronomy

Jan. 19, 2017 Rise Set
Actual Time
Civil Twilight
Nautical Twilight
Astronomical Twilight
Moon
Length of Visible Light
Length of Day
Tomorrow will be .
, % of the Moon is Illuminated

Today's Extremes

State Highs State Lows

Community

WunderPhotos

Upload Photos

1,962,540 photos uploaded!

WunderBlog® & News

Nearby

Air Quality

  Air Quality AQ Index Pollutant
Not available.

Snow Depth

Station Depth Elevation

Earthquake Activity

City Distance Mag. Time & Date
Minimum magnitude displayed is 2.5.

Coastal Water Temperatures

Place Temperature

Stations

Nearby Weather Stations

Station Location Temp. Windchill Dew Point Humidity Wind Precip. Elev Updated Type
                   

Watches & Warnings

Small Craft for Hazardous Seas Advisory
Issued: 3:49 AM EST Jan. 19, 2017 – National Weather Service

... Small Craft Advisory for hazardous seas in effect until 3 PM
EST this afternoon...
... Small Craft Advisory is cancelled...

The National Weather Service in gray has issued a Small Craft
Advisory for hazardous seas... which is in effect until 3 PM EST
this afternoon. The Small Craft Advisory has been cancelled.

* Seas... 4 to 7 feet.

Precautionary/preparedness actions...

A Small Craft Advisory for hazardous seas means that waves are
expected to be hazardous to small craft. Mariners should avoid
shoaling areas. Long period swell can sharpen into large breaking
waves in shoaling areas. It is not unusual for waves to break
much farther from shoaling areas than is normally experienced.
Remember... breaking waves can easily capsize even larger vessels.